createdAt,value
2018-06-13T00:00:02.889Z,20.64
2018-06-13T00:00:34.928Z,20.69
2018-06-13T00:01:06.937Z,20.68
2018-06-13T00:01:38.997Z,20.67
2018-06-13T00:02:11.049Z,20.65
2018-06-13T00:02:43.055Z,20.65
2018-06-13T00:03:15.068Z,20.62
2018-06-13T00:03:47.086Z,20.62
2018-06-13T00:04:19.108Z,20.62
2018-06-13T00:04:51.122Z,20.65
2018-06-13T00:05:23.138Z,20.66
2018-06-13T00:05:55.154Z,20.65
2018-06-13T00:06:27.159Z,20.64
2018-06-13T00:06:59.177Z,20.62
2018-06-13T00:07:31.188Z,20.59
2018-06-13T00:08:03.197Z,20.62
2018-06-13T00:08:35.213Z,20.62
2018-06-13T00:09:07.245Z,20.60
2018-06-13T00:09:39.261Z,20.65
2018-06-13T00:10:11.293Z,20.67
2018-06-13T00:10:43.300Z,20.66
2018-06-13T00:11:15.314Z,20.66
2018-06-13T00:11:47.327Z,20.64
2018-06-13T00:12:19.376Z,20.64
2018-06-13T00:12:51.375Z,20.63
2018-06-13T00:13:23.387Z,20.63
2018-06-13T00:13:55.414Z,20.58
2018-06-13T00:14:27.488Z,20.63
2018-06-13T00:14:59.507Z,20.64
2018-06-13T00:15:31.522Z,20.63
2018-06-13T00:16:03.543Z,20.63
2018-06-13T00:16:35.634Z,20.63
2018-06-13T00:17:07.643Z,20.64
2018-06-13T00:17:39.742Z,20.63
2018-06-13T00:18:11.722Z,20.63
2018-06-13T00:18:43.747Z,20.58
2018-06-13T00:19:15.759Z,20.52
2018-06-13T00:19:47.778Z,20.55
2018-06-13T00:20:19.799Z,20.60
2018-06-13T00:20:51.814Z,20.65
2018-06-13T00:21:23.831Z,20.64
2018-06-13T00:21:55.877Z,20.63
2018-06-13T00:22:27.880Z,20.59
2018-06-13T00:22:59.896Z,20.60
2018-06-13T00:23:31.906Z,20.59
2018-06-13T00:24:03.944Z,20.63
2018-06-13T00:24:35.991Z,20.64
2018-06-13T00:25:08.001Z,20.63
2018-06-13T00:25:40.010Z,20.60
2018-06-13T00:26:12.022Z,20.60
2018-06-13T00:26:44.075Z,20.64
2018-06-13T00:27:16.104Z,20.66
2018-06-13T00:27:48.106Z,20.67
2018-06-13T00:28:20.126Z,20.64
2018-06-13T00:28:52.151Z,20.61
2018-06-13T00:29:24.167Z,20.59
2018-06-13T00:29:56.174Z,20.58
2018-06-13T00:30:28.178Z,20.56
2018-06-13T00:31:00.204Z,20.57
2018-06-13T00:31:32.214Z,20.58
2018-06-13T00:32:04.275Z,20.54
2018-06-13T00:32:36.310Z,20.53
2018-06-13T00:33:08.336Z,20.50
2018-06-13T00:33:40.359Z,20.47
2018-06-13T00:34:12.392Z,20.49
2018-06-13T00:34:44.404Z,20.51
2018-06-13T00:35:16.446Z,20.52
2018-06-13T00:35:48.463Z,20.52
2018-06-13T00:36:20.490Z,20.50
2018-06-13T00:36:52.565Z,20.49
2018-06-13T00:37:24.550Z,20.50
2018-06-13T00:37:56.569Z,20.48
2018-06-13T00:38:28.614Z,20.50
2018-06-13T00:39:00.620Z,20.47
2018-06-13T00:39:32.654Z,20.45
2018-06-13T00:40:04.666Z,20.46
2018-06-13T00:40:36.706Z,20.48
2018-06-13T00:41:08.718Z,20.48
2018-06-13T00:41:40.755Z,20.52
2018-06-13T00:42:12.782Z,20.49
2018-06-13T00:42:44.806Z,20.47
2018-06-13T00:43:16.820Z,20.43
2018-06-13T00:43:48.828Z,20.44
2018-06-13T00:44:20.850Z,20.43
2018-06-13T00:44:52.862Z,20.45
2018-06-13T00:45:24.962Z,20.49
2018-06-13T00:45:57.002Z,20.51
2018-06-13T00:46:29.013Z,20.56
2018-06-13T00:47:01.023Z,20.55
2018-06-13T00:47:33.046Z,20.58
2018-06-13T00:48:05.096Z,20.55
2018-06-13T00:48:37.154Z,20.51
2018-06-13T00:49:09.167Z,20.46
2018-06-13T00:49:41.183Z,20.47
2018-06-13T00:50:13.211Z,20.46
2018-06-13T00:50:45.218Z,20.49
2018-06-13T00:51:17.237Z,20.50
2018-06-13T00:51:49.234Z,20.49
2018-06-13T00:52:21.287Z,20.51
2018-06-13T00:52:53.307Z,20.52
2018-06-13T00:53:25.338Z,20.53
2018-06-13T00:53:57.365Z,20.52
2018-06-13T00:54:29.370Z,20.53
2018-06-13T00:55:01.395Z,20.52
2018-06-13T00:55:33.425Z,20.52
2018-06-13T00:56:05.454Z,20.54
2018-06-13T00:56:37.495Z,20.55
2018-06-13T00:57:09.526Z,20.54
2018-06-13T00:57:41.543Z,20.52
2018-06-13T00:58:13.556Z,20.51
2018-06-13T00:58:45.562Z,20.53
2018-06-13T00:59:17.579Z,20.55
2018-06-13T00:59:49.626Z,20.52
2018-06-13T01:00:21.619Z,20.46
2018-06-13T01:00:54.031Z,20.44
2018-06-13T01:01:25.926Z,20.43
2018-06-13T01:01:57.939Z,20.42
2018-06-13T01:02:29.950Z,20.40
2018-06-13T01:03:01.959Z,20.42
2018-06-13T01:03:34.009Z,20.44
2018-06-13T01:04:06.020Z,20.47
2018-06-13T01:04:38.053Z,20.49
2018-06-13T01:05:10.064Z,20.51
2018-06-13T01:05:42.073Z,20.50
2018-06-13T01:06:14.082Z,20.51
2018-06-13T01:06:46.130Z,20.49
2018-06-13T01:07:18.145Z,20.47
2018-06-13T01:07:50.167Z,20.45
2018-06-13T01:08:22.241Z,20.41
2018-06-13T01:08:54.261Z,20.41
2018-06-13T01:09:26.286Z,20.38
2018-06-13T01:09:58.297Z,20.38
2018-06-13T01:10:30.325Z,20.38
2018-06-13T01:11:02.347Z,20.40
2018-06-13T01:11:34.357Z,20.42
2018-06-13T01:12:06.364Z,20.47
2018-06-13T01:12:38.370Z,20.51
2018-06-13T01:13:10.403Z,20.55
2018-06-13T01:13:42.416Z,20.55
2018-06-13T01:14:14.443Z,20.55
2018-06-13T01:14:46.464Z,20.56
2018-06-13T01:15:18.467Z,20.56
2018-06-13T01:15:50.483Z,20.56
2018-06-13T01:16:22.493Z,20.55
2018-06-13T01:16:54.503Z,20.52
2018-06-13T01:17:26.522Z,20.51
2018-06-13T01:17:58.562Z,20.49
2018-06-13T01:18:30.577Z,20.47
2018-06-13T01:19:02.609Z,20.47
2018-06-13T01:19:34.607Z,20.45
2018-06-13T01:20:06.638Z,20.44
2018-06-13T01:20:38.652Z,20.48
2018-06-13T01:21:10.685Z,20.45
2018-06-13T01:21:42.703Z,20.48
2018-06-13T01:22:14.779Z,20.47
2018-06-13T01:22:46.773Z,20.47
2018-06-13T01:23:18.806Z,20.49
2018-06-13T01:23:50.831Z,20.46
2018-06-13T01:24:22.908Z,20.47
2018-06-13T01:24:54.865Z,20.45
2018-06-13T01:25:26.892Z,20.47
2018-06-13T01:25:58.920Z,20.46
2018-06-13T01:26:30.943Z,20.47
2018-06-13T01:27:02.957Z,20.48
2018-06-13T01:27:34.978Z,20.48
2018-06-13T01:28:06.982Z,20.50
2018-06-13T01:28:38.999Z,20.50
2018-06-13T01:29:11.043Z,20.49
2018-06-13T01:29:43.041Z,20.52
2018-06-13T01:30:15.073Z,20.52
2018-06-13T01:30:47.087Z,20.53
2018-06-13T01:31:19.094Z,20.54
2018-06-13T01:31:51.133Z,20.55
2018-06-13T01:32:23.115Z,20.54
2018-06-13T01:32:55.130Z,20.55
2018-06-13T01:33:27.148Z,20.53
2018-06-13T01:33:59.202Z,20.53
2018-06-13T01:34:31.226Z,20.52
2018-06-13T01:35:03.237Z,20.49
2018-06-13T01:35:35.326Z,20.47
2018-06-13T01:36:07.340Z,20.46
2018-06-13T01:36:39.361Z,20.48
2018-06-13T01:37:11.375Z,20.48
2018-06-13T01:37:43.445Z,20.51
2018-06-13T01:38:15.464Z,20.54
2018-06-13T01:38:47.509Z,20.55
2018-06-13T01:39:19.522Z,20.53
2018-06-13T01:39:51.549Z,20.51
2018-06-13T01:40:23.578Z,20.52
2018-06-13T01:40:55.604Z,20.50
2018-06-13T01:41:27.643Z,20.47
2018-06-13T01:41:59.625Z,20.48
2018-06-13T01:42:31.703Z,20.46
2018-06-13T01:43:03.707Z,20.45
2018-06-13T01:43:35.722Z,20.46
2018-06-13T01:44:07.739Z,20.46
2018-06-13T01:44:39.773Z,20.41
2018-06-13T01:45:12.155Z,20.40
2018-06-13T01:45:44.091Z,20.40
2018-06-13T01:46:16.057Z,20.44
2018-06-13T01:46:48.062Z,20.48
2018-06-13T01:47:20.082Z,20.49
2018-06-13T01:47:52.138Z,20.51
2018-06-13T01:48:24.149Z,20.53
2018-06-13T01:48:56.182Z,20.55
2018-06-13T01:49:28.234Z,20.56
2018-06-13T01:50:00.235Z,20.55
2018-06-13T01:50:32.259Z,20.56
2018-06-13T01:51:04.267Z,20.51
2018-06-13T01:51:36.290Z,20.52
2018-06-13T01:52:08.319Z,20.55
2018-06-13T01:52:40.336Z,20.55
2018-06-13T01:53:12.340Z,20.55
2018-06-13T01:53:44.355Z,20.58
2018-06-13T01:54:16.376Z,20.57
2018-06-13T01:54:48.383Z,20.55
2018-06-13T01:55:20.383Z,20.55
2018-06-13T01:55:52.394Z,20.57
2018-06-13T01:56:24.425Z,20.58
2018-06-13T01:56:56.442Z,20.59
2018-06-13T01:57:28.473Z,20.57
2018-06-13T01:58:00.508Z,20.54
2018-06-13T01:58:32.574Z,20.54
2018-06-13T01:59:04.601Z,20.55
2018-06-13T01:59:36.614Z,20.56
2018-06-13T02:00:08.621Z,20.56
2018-06-13T02:00:40.657Z,20.55
2018-06-13T02:01:12.672Z,20.56
2018-06-13T02:01:44.701Z,20.55
2018-06-13T02:02:16.707Z,20.57
2018-06-13T02:02:48.717Z,20.52
2018-06-13T02:03:20.735Z,20.53
2018-06-13T02:03:52.774Z,20.52
2018-06-13T02:04:24.795Z,20.53
2018-06-13T02:04:56.806Z,20.52
2018-06-13T02:05:28.814Z,20.55
2018-06-13T02:06:00.831Z,20.52
2018-06-13T02:06:32.854Z,20.50
2018-06-13T02:07:04.875Z,20.48
2018-06-13T02:07:36.871Z,20.48
2018-06-13T02:08:08.884Z,20.47
2018-06-13T02:08:40.897Z,20.45
2018-06-13T02:09:12.912Z,20.45
2018-06-13T02:09:44.931Z,20.45
2018-06-13T02:10:16.941Z,20.46
2018-06-13T02:10:48.990Z,20.49
2018-06-13T02:11:21.006Z,20.46
2018-06-13T02:11:53.014Z,20.45
2018-06-13T02:12:25.031Z,20.45
2018-06-13T02:12:57.074Z,20.48
2018-06-13T02:13:29.098Z,20.47
2018-06-13T02:14:01.261Z,20.49
2018-06-13T02:14:33.258Z,20.48
2018-06-13T02:15:05.291Z,20.47
2018-06-13T02:15:37.302Z,20.46
2018-06-13T02:16:09.306Z,20.45
2018-06-13T02:16:41.346Z,20.45
2018-06-13T02:17:13.348Z,20.45
2018-06-13T02:17:45.360Z,20.46
2018-06-13T02:18:17.367Z,20.48
2018-06-13T02:18:49.381Z,20.47
2018-06-13T02:19:21.517Z,20.48
2018-06-13T02:19:53.547Z,20.45
2018-06-13T02:20:25.561Z,20.42
2018-06-13T02:20:57.575Z,20.41
2018-06-13T02:21:29.598Z,20.42
2018-06-13T02:22:01.609Z,20.41
2018-06-13T02:22:33.630Z,20.42
2018-06-13T02:23:05.656Z,20.38
2018-06-13T02:23:37.701Z,20.36
2018-06-13T02:24:09.710Z,20.36
2018-06-13T02:24:41.726Z,20.34
2018-06-13T02:25:13.769Z,20.35
2018-06-13T02:25:45.779Z,20.36
2018-06-13T02:26:17.785Z,20.36
2018-06-13T02:26:49.806Z,20.35
2018-06-13T02:27:21.849Z,20.33
2018-06-13T02:27:53.846Z,20.32
2018-06-13T02:28:25.860Z,20.33
2018-06-13T02:28:57.869Z,20.32
2018-06-13T02:29:29.878Z,20.35
2018-06-13T02:30:01.909Z,20.33
2018-06-13T02:30:33.913Z,20.34
2018-06-13T02:31:05.944Z,20.35
2018-06-13T02:31:37.961Z,20.36
2018-06-13T02:32:09.986Z,20.35
2018-06-13T02:32:42.025Z,20.34
2018-06-13T02:33:14.086Z,20.34
2018-06-13T02:33:46.092Z,20.34
2018-06-13T02:34:18.133Z,20.36
2018-06-13T02:34:50.150Z,20.37
2018-06-13T02:35:22.156Z,20.34
2018-06-13T02:35:54.156Z,20.33
2018-06-13T02:36:26.173Z,20.30
2018-06-13T02:36:58.191Z,20.23
2018-06-13T02:37:30.196Z,20.22
2018-06-13T02:38:02.223Z,20.25
2018-06-13T02:38:34.221Z,20.25
2018-06-13T02:39:06.232Z,20.28
2018-06-13T02:39:38.243Z,20.24
2018-06-13T02:40:10.280Z,20.22
2018-06-13T02:40:42.354Z,20.23
2018-06-13T02:41:14.371Z,20.25
2018-06-13T02:41:46.406Z,20.24
2018-06-13T02:42:18.433Z,20.28
2018-06-13T02:42:50.446Z,20.33
2018-06-13T02:43:22.466Z,20.35
2018-06-13T02:43:54.473Z,20.36
2018-06-13T02:44:26.618Z,20.31
2018-06-13T02:44:58.639Z,20.30
2018-06-13T02:45:30.656Z,20.22
2018-06-13T02:46:02.683Z,20.27
2018-06-13T02:46:34.718Z,20.27
2018-06-13T02:47:06.749Z,20.28
2018-06-13T02:47:38.791Z,20.26
2018-06-13T02:48:10.806Z,20.25
2018-06-13T02:48:42.825Z,20.28
2018-06-13T02:49:14.841Z,20.33
2018-06-13T02:49:46.859Z,20.36
2018-06-13T02:50:18.875Z,20.33
2018-06-13T02:50:50.890Z,20.28
2018-06-13T02:51:23.303Z,20.30
2018-06-13T02:51:55.203Z,20.30
2018-06-13T02:52:27.216Z,20.27
2018-06-13T02:52:59.225Z,20.27
2018-06-13T02:53:31.252Z,20.29
2018-06-13T02:54:03.285Z,20.30
2018-06-13T02:54:35.303Z,20.28
2018-06-13T02:55:07.319Z,20.32
2018-06-13T02:55:39.391Z,20.32
2018-06-13T02:56:11.409Z,20.34
2018-06-13T02:56:43.495Z,20.35
2018-06-13T02:57:15.527Z,20.33
2018-06-13T02:57:47.542Z,20.32
2018-06-13T02:58:19.555Z,20.31
2018-06-13T02:58:51.571Z,20.34
2018-06-13T02:59:23.583Z,20.33
2018-06-13T02:59:55.584Z,20.34
2018-06-13T03:00:27.618Z,20.35
2018-06-13T03:00:59.718Z,20.37
2018-06-13T03:01:31.743Z,20.38
2018-06-13T03:02:03.752Z,20.38
2018-06-13T03:02:35.785Z,20.41
2018-06-13T03:03:07.792Z,20.36
2018-06-13T03:03:39.823Z,20.36
2018-06-13T03:04:11.855Z,20.36
2018-06-13T03:04:43.885Z,20.36
2018-06-13T03:05:15.900Z,20.37
2018-06-13T03:05:47.908Z,20.36
2018-06-13T03:06:19.923Z,20.33
2018-06-13T03:06:51.933Z,20.32
2018-06-13T03:07:23.946Z,20.29
2018-06-13T03:07:55.980Z,20.30
2018-06-13T03:08:27.978Z,20.33
2018-06-13T03:09:00.021Z,20.33
2018-06-13T03:09:32.032Z,20.34
2018-06-13T03:10:04.044Z,20.38
2018-06-13T03:10:36.056Z,20.41
2018-06-13T03:11:08.057Z,20.41
2018-06-13T03:11:40.073Z,20.38
2018-06-13T03:12:12.080Z,20.36
2018-06-13T03:12:44.096Z,20.36
2018-06-13T03:13:16.097Z,20.38
2018-06-13T03:13:48.136Z,20.37
2018-06-13T03:14:20.165Z,20.36
2018-06-13T03:14:52.163Z,20.34
2018-06-13T03:15:24.174Z,20.33
2018-06-13T03:15:56.182Z,20.33
2018-06-13T03:16:28.264Z,20.36
2018-06-13T03:17:00.234Z,20.38
2018-06-13T03:17:32.263Z,20.38
2018-06-13T03:18:04.272Z,20.39
2018-06-13T03:18:36.279Z,20.39
2018-06-13T03:19:08.340Z,20.34
2018-06-13T03:19:40.356Z,20.30
2018-06-13T03:20:12.386Z,20.32
2018-06-13T03:20:44.383Z,20.35
2018-06-13T03:21:16.414Z,20.33
2018-06-13T03:21:48.445Z,20.32
2018-06-13T03:22:20.483Z,20.32
2018-06-13T03:22:52.478Z,20.28
2018-06-13T03:23:24.522Z,20.31
2018-06-13T03:23:56.546Z,20.33
2018-06-13T03:24:28.567Z,20.34
2018-06-13T03:25:00.644Z,20.33
2018-06-13T03:25:32.673Z,20.28
2018-06-13T03:26:04.683Z,20.30
2018-06-13T03:26:36.700Z,20.31
2018-06-13T03:27:08.713Z,20.30
2018-06-13T03:27:40.761Z,20.33
2018-06-13T03:28:12.780Z,20.34
2018-06-13T03:28:44.797Z,20.35
2018-06-13T03:29:16.812Z,20.32
2018-06-13T03:29:48.837Z,20.33
2018-06-13T03:30:20.848Z,20.31
2018-06-13T03:30:52.859Z,20.31
2018-06-13T03:31:24.886Z,20.31
2018-06-13T03:31:56.911Z,20.28
2018-06-13T03:32:28.929Z,20.25
2018-06-13T03:33:00.974Z,20.24
2018-06-13T03:33:32.969Z,20.28
2018-06-13T03:34:05.394Z,20.33
2018-06-13T03:34:37.292Z,20.32
2018-06-13T03:35:09.305Z,20.30
2018-06-13T03:35:41.322Z,20.30
2018-06-13T03:36:13.352Z,20.31
2018-06-13T03:36:45.402Z,20.27
2018-06-13T03:37:17.415Z,20.28
2018-06-13T03:37:49.417Z,20.31
2018-06-13T03:38:21.434Z,20.31
2018-06-13T03:38:53.471Z,20.27
2018-06-13T03:39:25.498Z,20.30
2018-06-13T03:39:57.505Z,20.28
2018-06-13T03:40:29.528Z,20.34
2018-06-13T03:41:01.562Z,20.35
2018-06-13T03:41:33.558Z,20.34
2018-06-13T03:42:05.639Z,20.34
2018-06-13T03:42:37.655Z,20.30
2018-06-13T03:43:09.693Z,20.31
2018-06-13T03:43:41.724Z,20.33
2018-06-13T03:44:13.733Z,20.35
2018-06-13T03:44:45.750Z,20.33
2018-06-13T03:45:17.802Z,20.33
2018-06-13T03:45:49.813Z,20.34
2018-06-13T03:46:21.830Z,20.27
2018-06-13T03:46:53.843Z,20.25
2018-06-13T03:47:25.857Z,20.27
2018-06-13T03:47:57.853Z,20.31
2018-06-13T03:48:29.889Z,20.34
2018-06-13T03:49:01.890Z,20.33
2018-06-13T03:49:33.902Z,20.35
2018-06-13T03:50:05.914Z,20.37
2018-06-13T03:50:37.925Z,20.35
2018-06-13T03:51:09.957Z,20.35
2018-06-13T03:51:41.970Z,20.34
2018-06-13T03:52:13.983Z,20.34
2018-06-13T03:52:46.147Z,20.35
2018-06-13T03:53:18.160Z,20.35
2018-06-13T03:53:50.179Z,20.34
2018-06-13T03:54:22.188Z,20.36
2018-06-13T03:54:54.213Z,20.34
2018-06-13T03:55:26.225Z,20.34
2018-06-13T03:55:58.230Z,20.31
2018-06-13T03:56:30.246Z,20.30
2018-06-13T03:57:02.272Z,20.29
2018-06-13T03:57:34.491Z,20.30
2018-06-13T03:58:06.535Z,20.31
2018-06-13T03:58:38.694Z,20.30
2018-06-13T03:59:10.857Z,20.27
2018-06-13T03:59:42.878Z,20.27
2018-06-13T04:00:14.895Z,20.33
2018-06-13T04:00:46.922Z,20.28
2018-06-13T04:01:18.956Z,20.26
2018-06-13T04:01:51.034Z,20.27
2018-06-13T04:02:23.373Z,20.30
2018-06-13T04:02:55.271Z,20.34
2018-06-13T04:03:27.285Z,20.36
2018-06-13T04:03:59.312Z,20.38
2018-06-13T04:04:31.322Z,20.40
2018-06-13T04:05:03.335Z,20.39
2018-06-13T04:05:35.347Z,20.40
2018-06-13T04:06:07.367Z,20.38
2018-06-13T04:06:39.432Z,20.35
2018-06-13T04:07:11.465Z,20.35
2018-06-13T04:07:43.450Z,20.36
2018-06-13T04:08:15.489Z,20.36
2018-06-13T04:08:47.489Z,20.36
2018-06-13T04:09:19.512Z,20.35
2018-06-13T04:09:51.531Z,20.35
2018-06-13T04:10:23.558Z,20.33
2018-06-13T04:10:55.565Z,20.30
2018-06-13T04:11:27.581Z,20.30
2018-06-13T04:11:59.593Z,20.31
2018-06-13T04:12:31.636Z,20.35
2018-06-13T04:13:03.737Z,20.35
2018-06-13T04:13:35.749Z,20.34
2018-06-13T04:14:07.780Z,20.37
2018-06-13T04:14:39.846Z,20.36
2018-06-13T04:15:11.919Z,20.36
2018-06-13T04:15:43.897Z,20.42
2018-06-13T04:16:15.914Z,20.48
2018-06-13T04:16:47.918Z,20.51
2018-06-13T04:17:19.926Z,20.53
2018-06-13T04:17:52.001Z,20.56
2018-06-13T04:18:24.020Z,20.62
2018-06-13T04:18:56.011Z,20.55
2018-06-13T04:19:28.027Z,20.50
2018-06-13T04:20:00.050Z,20.48
2018-06-13T04:20:32.043Z,20.44
2018-06-13T04:21:04.073Z,20.44
2018-06-13T04:21:36.642Z,20.45
2018-06-13T04:22:08.659Z,20.44
2018-06-13T04:22:40.700Z,20.48
2018-06-13T04:23:12.711Z,20.39
2018-06-13T04:23:44.745Z,20.38
2018-06-13T04:24:16.750Z,20.45
2018-06-13T04:24:48.783Z,20.47
2018-06-13T04:25:20.802Z,20.47
2018-06-13T04:25:52.808Z,20.49
2018-06-13T04:26:24.823Z,20.43
2018-06-13T04:26:56.826Z,20.36
2018-06-13T04:27:28.843Z,20.34
2018-06-13T04:28:00.870Z,20.27
2018-06-13T04:28:32.886Z,20.26
2018-06-13T04:29:04.903Z,20.31
2018-06-13T04:29:36.902Z,20.37
2018-06-13T04:30:08.913Z,20.47
2018-06-13T04:30:40.930Z,20.62
2018-06-13T04:31:12.947Z,20.73
2018-06-13T04:31:44.953Z,20.82
2018-06-13T04:32:16.976Z,20.90
2018-06-13T04:32:49.015Z,20.99
2018-06-13T04:33:21.041Z,21.07
2018-06-13T04:33:53.058Z,21.12
2018-06-13T04:34:25.073Z,21.15
2018-06-13T04:34:57.109Z,21.19
2018-06-13T04:35:29.111Z,21.20
2018-06-13T04:36:01.124Z,21.20
2018-06-13T04:36:33.136Z,21.21
2018-06-13T04:37:05.148Z,21.20
2018-06-13T04:37:37.156Z,21.24
2018-06-13T04:38:09.167Z,21.25
2018-06-13T04:38:41.202Z,21.23
2018-06-13T04:39:13.236Z,21.23
2018-06-13T04:39:45.234Z,21.21
2018-06-13T04:40:17.262Z,21.26
2018-06-13T04:40:49.355Z,21.25
2018-06-13T04:41:21.405Z,21.27
2018-06-13T04:41:53.427Z,21.31
2018-06-13T04:42:25.455Z,21.28
2018-06-13T04:42:57.513Z,21.26
2018-06-13T04:43:29.503Z,21.27
2018-06-13T04:44:01.522Z,21.23
2018-06-13T04:44:33.556Z,21.22
2018-06-13T04:45:05.565Z,21.24
2018-06-13T04:45:37.578Z,21.27
2018-06-13T04:46:09.590Z,21.26
2018-06-13T04:46:41.615Z,21.27
2018-06-13T04:47:13.636Z,21.28
2018-06-13T04:47:45.655Z,21.30
2018-06-13T04:48:17.688Z,21.28
2018-06-13T04:48:49.732Z,21.23
2018-06-13T04:49:21.746Z,21.20
2018-06-13T04:49:53.778Z,21.16
2018-06-13T04:50:25.787Z,21.16
2018-06-13T04:50:57.831Z,21.15
2018-06-13T04:51:29.835Z,21.15
2018-06-13T04:52:01.864Z,21.16
2018-06-13T04:52:33.869Z,21.16
2018-06-13T04:53:05.895Z,21.13
2018-06-13T04:53:37.917Z,21.15
2018-06-13T04:54:09.918Z,21.18
2018-06-13T04:54:41.935Z,21.19
2018-06-13T04:55:13.958Z,21.20
2018-06-13T04:55:45.965Z,21.20
2018-06-13T04:56:17.986Z,21.21
2018-06-13T04:56:49.986Z,21.19
2018-06-13T04:57:22.007Z,21.18
2018-06-13T04:57:54.046Z,21.20
2018-06-13T04:58:26.048Z,21.21
2018-06-13T04:58:58.067Z,21.21
2018-06-13T04:59:30.054Z,21.23
2018-06-13T05:00:02.091Z,21.25
2018-06-13T05:00:34.109Z,21.23
2018-06-13T05:01:06.121Z,21.26
2018-06-13T05:01:38.141Z,21.24
2018-06-13T05:02:10.166Z,21.28
2018-06-13T05:02:42.189Z,21.31
2018-06-13T05:03:14.214Z,21.29
2018-06-13T05:03:46.202Z,21.29
2018-06-13T05:04:18.227Z,21.28
2018-06-13T05:04:50.232Z,21.28
2018-06-13T05:05:22.247Z,21.31
2018-06-13T05:05:54.280Z,21.30
2018-06-13T05:06:26.305Z,21.31
2018-06-13T05:06:58.303Z,21.29
2018-06-13T05:07:30.319Z,21.30
2018-06-13T05:08:02.363Z,21.29
2018-06-13T05:08:34.388Z,21.24
2018-06-13T05:09:06.409Z,21.23
2018-06-13T05:09:38.427Z,21.21
2018-06-13T05:10:10.482Z,21.21
2018-06-13T05:10:42.494Z,21.20
2018-06-13T05:11:14.521Z,21.15
2018-06-13T05:11:46.531Z,21.15
2018-06-13T05:12:18.535Z,21.14
2018-06-13T05:12:50.548Z,21.13
2018-06-13T05:13:22.587Z,21.14
2018-06-13T05:13:54.593Z,21.13
2018-06-13T05:14:26.614Z,21.12
2018-06-13T05:14:58.623Z,21.12
2018-06-13T05:15:30.654Z,21.11
2018-06-13T05:16:02.694Z,21.13
2018-06-13T05:16:34.703Z,21.14
2018-06-13T05:17:06.701Z,21.14
2018-06-13T05:17:38.715Z,21.15
2018-06-13T05:18:10.723Z,21.15
2018-06-13T05:18:42.748Z,21.15
2018-06-13T05:19:14.747Z,21.13
2018-06-13T05:19:46.760Z,21.13
2018-06-13T05:20:18.782Z,21.10
2018-06-13T05:20:50.797Z,21.11
2018-06-13T05:21:22.826Z,21.15
2018-06-13T05:21:54.835Z,21.15
2018-06-13T05:22:26.854Z,21.17
2018-06-13T05:22:58.881Z,21.19
2018-06-13T05:23:30.903Z,21.23
2018-06-13T05:24:02.967Z,21.22
2018-06-13T05:24:34.993Z,21.20
2018-06-13T05:25:07.016Z,21.21
2018-06-13T05:25:39.038Z,21.20
2018-06-13T05:26:11.047Z,21.20
2018-06-13T05:26:43.086Z,21.16
2018-06-13T05:27:15.083Z,21.15
2018-06-13T05:27:47.093Z,21.15
2018-06-13T05:28:19.107Z,21.12
2018-06-13T05:28:51.125Z,21.12
2018-06-13T05:29:23.128Z,21.11
2018-06-13T05:29:55.151Z,21.11
2018-06-13T05:30:27.147Z,21.13
2018-06-13T05:30:59.168Z,21.15
2018-06-13T05:31:31.175Z,21.17
2018-06-13T05:32:03.194Z,21.19
2018-06-13T05:32:35.239Z,21.21
2018-06-13T05:33:07.240Z,21.23
2018-06-13T05:33:39.265Z,21.21
2018-06-13T05:34:11.293Z,21.22
2018-06-13T05:34:43.318Z,21.22
2018-06-13T05:35:15.328Z,21.19
2018-06-13T05:35:47.347Z,21.21
2018-06-13T05:36:19.358Z,21.22
2018-06-13T05:36:51.387Z,21.21
2018-06-13T05:37:23.445Z,21.20
2018-06-13T05:37:55.470Z,21.19
2018-06-13T05:38:27.485Z,21.18
2018-06-13T05:38:59.505Z,21.15
2018-06-13T05:39:31.589Z,21.16
2018-06-13T05:40:03.572Z,21.16
2018-06-13T05:40:35.582Z,21.14
2018-06-13T05:41:07.644Z,21.14
2018-06-13T05:41:39.622Z,21.13
2018-06-13T05:42:11.651Z,21.16
2018-06-13T05:42:43.666Z,21.20
2018-06-13T05:43:15.667Z,21.22
2018-06-13T05:43:47.719Z,21.20
2018-06-13T05:44:19.692Z,21.19
2018-06-13T05:44:51.703Z,21.16
2018-06-13T05:45:23.710Z,21.10
2018-06-13T05:45:55.723Z,21.08
2018-06-13T05:46:27.752Z,21.10
2018-06-13T05:46:59.770Z,21.13
2018-06-13T05:47:31.785Z,21.17
2018-06-13T05:48:03.798Z,21.15
2018-06-13T05:48:35.811Z,21.18
2018-06-13T05:49:07.824Z,21.19
2018-06-13T05:49:39.830Z,21.22
2018-06-13T05:50:11.871Z,21.26
2018-06-13T05:50:43.876Z,21.30
2018-06-13T05:51:15.904Z,21.28
2018-06-13T05:51:47.961Z,21.26
2018-06-13T05:52:19.934Z,21.26
2018-06-13T05:52:51.960Z,21.23
2018-06-13T05:53:23.969Z,21.22
2018-06-13T05:53:55.980Z,21.22
2018-06-13T05:54:27.995Z,21.22
2018-06-13T05:55:00.019Z,21.23
2018-06-13T05:55:32.040Z,21.21
2018-06-13T05:56:04.040Z,21.16
2018-06-13T05:56:36.064Z,21.15
2018-06-13T05:57:08.103Z,21.11
2018-06-13T05:57:40.135Z,21.10
2018-06-13T05:58:12.151Z,21.11
2018-06-13T05:58:44.162Z,21.15
2018-06-13T05:59:16.178Z,21.17
2018-06-13T05:59:48.193Z,21.13
2018-06-13T06:00:20.234Z,21.06
2018-06-13T06:00:52.236Z,20.98
2018-06-13T06:01:24.253Z,21.00
2018-06-13T06:01:56.277Z,21.02
2018-06-13T06:02:28.296Z,21.03
2018-06-13T06:03:00.312Z,21.03
2018-06-13T06:03:32.375Z,21.05
2018-06-13T06:04:04.356Z,21.06
2018-06-13T06:04:36.363Z,21.07
2018-06-13T06:05:08.363Z,21.07
2018-06-13T06:05:40.385Z,21.06
2018-06-13T06:06:12.392Z,21.02
2018-06-13T06:06:44.397Z,21.01
2018-06-13T06:07:16.443Z,21.01
2018-06-13T06:07:48.478Z,21.02
2018-06-13T06:08:20.528Z,21.02
2018-06-13T06:08:52.536Z,21.05
2018-06-13T06:09:24.563Z,21.11
2018-06-13T06:09:56.560Z,21.13
2018-06-13T06:10:28.640Z,21.12
2018-06-13T06:11:00.604Z,21.10
2018-06-13T06:11:32.619Z,21.08
2018-06-13T06:12:04.630Z,21.07
2018-06-13T06:12:36.658Z,21.05
2018-06-13T06:13:08.674Z,21.00
2018-06-13T06:13:40.680Z,20.98
2018-06-13T06:14:12.699Z,20.96
2018-06-13T06:14:44.743Z,20.98
2018-06-13T06:15:16.740Z,21.00
2018-06-13T06:15:48.763Z,20.98
2018-06-13T06:16:20.783Z,21.01
2018-06-13T06:16:52.844Z,21.02
2018-06-13T06:17:24.856Z,21.05
2018-06-13T06:17:56.868Z,21.06
2018-06-13T06:18:28.896Z,21.03
2018-06-13T06:19:00.906Z,21.03
2018-06-13T06:19:32.932Z,21.03
2018-06-13T06:20:04.945Z,21.00
2018-06-13T06:20:36.960Z,21.01
2018-06-13T06:21:08.991Z,21.04
2018-06-13T06:21:40.981Z,21.03
2018-06-13T06:22:13.009Z,21.04
2018-06-13T06:22:45.018Z,21.03
2018-06-13T06:23:17.035Z,21.00
2018-06-13T06:23:49.051Z,20.99
2018-06-13T06:24:21.068Z,20.98
2018-06-13T06:24:53.079Z,21.01
2018-06-13T06:25:25.119Z,21.05
2018-06-13T06:25:57.128Z,21.04
2018-06-13T06:26:29.135Z,21.01
2018-06-13T06:27:01.186Z,21.00
2018-06-13T06:27:33.190Z,21.00
2018-06-13T06:28:05.223Z,21.00
2018-06-13T06:28:37.246Z,21.00
2018-06-13T06:29:09.311Z,21.02
2018-06-13T06:29:41.332Z,21.03
2018-06-13T06:30:13.370Z,21.04
2018-06-13T06:30:45.397Z,21.05
2018-06-13T06:31:17.398Z,21.01
2018-06-13T06:31:49.419Z,21.05
2018-06-13T06:32:21.450Z,21.08
2018-06-13T06:32:53.459Z,21.06
2018-06-13T06:33:25.487Z,21.03
2018-06-13T06:33:57.508Z,20.99
2018-06-13T06:34:29.503Z,20.95
2018-06-13T06:35:01.550Z,20.96
2018-06-13T06:35:33.553Z,20.97
2018-06-13T06:36:05.563Z,20.96
2018-06-13T06:36:37.576Z,20.96
2018-06-13T06:37:09.567Z,20.99
2018-06-13T06:37:41.591Z,21.00
2018-06-13T06:38:13.599Z,20.98
2018-06-13T06:38:45.619Z,20.99
2018-06-13T06:39:17.670Z,20.95
2018-06-13T06:39:49.680Z,20.96
2018-06-13T06:40:21.706Z,20.96
2018-06-13T06:40:53.729Z,20.98
2018-06-13T06:41:25.793Z,21.00
2018-06-13T06:41:57.789Z,20.98
2018-06-13T06:42:29.811Z,20.97
2018-06-13T06:43:01.827Z,20.99
2018-06-13T06:43:33.836Z,20.96
2018-06-13T06:44:05.855Z,20.90
2018-06-13T06:44:37.877Z,20.91
2018-06-13T06:45:09.884Z,20.95
2018-06-13T06:45:41.907Z,20.95
2018-06-13T06:46:13.938Z,20.94
2018-06-13T06:46:45.955Z,20.96
2018-06-13T06:47:17.964Z,20.97
2018-06-13T06:47:50.059Z,20.99
2018-06-13T06:48:22.074Z,21.01
2018-06-13T06:48:54.114Z,20.98
2018-06-13T06:49:26.129Z,21.00
2018-06-13T06:49:58.149Z,21.00
2018-06-13T06:50:30.159Z,21.06
2018-06-13T06:51:02.188Z,21.07
2018-06-13T06:51:34.218Z,21.07
2018-06-13T06:52:06.235Z,21.04